createdAt,value
2022-12-27T00:01:12.098Z,22.09
2022-12-27T00:06:18.888Z,22.12
2022-12-27T00:11:21.582Z,22.16
2022-12-27T00:16:23.037Z,22.18
2022-12-27T00:21:24.668Z,22.13
2022-12-27T00:26:27.671Z,22.05
2022-12-27T00:31:30.408Z,22.12
2022-12-27T00:36:31.904Z,22.16
2022-12-27T00:41:33.466Z,22.16
2022-12-27T00:46:34.868Z,22.15
2022-12-27T00:51:36.414Z,22.10
2022-12-27T00:56:37.798Z,22.12
2022-12-27T01:01:39.268Z,22.16
2022-12-27T01:06:40.698Z,22.16
2022-12-27T01:11:42.078Z,22.14
2022-12-27T01:16:43.668Z,22.12
2022-12-27T01:21:45.063Z,22.14
2022-12-27T01:26:46.459Z,22.17
2022-12-27T01:31:49.787Z,22.20
2022-12-27T01:36:51.253Z,22.15
2022-12-27T01:42:11.203Z,22.10
2022-12-27T01:47:12.411Z,22.12
2022-12-27T01:52:13.788Z,22.17
2022-12-27T01:57:15.306Z,22.19
2022-12-27T02:02:16.935Z,22.18
2022-12-27T02:07:18.408Z,22.10
2022-12-27T02:12:20.125Z,22.12
2022-12-27T02:17:28.782Z,22.16
2022-12-27T02:23:06.720Z,22.17
2022-12-27T02:28:49.453Z,22.17
2022-12-27T02:33:51.468Z,22.14
2022-12-27T02:38:55.478Z,22.13
2022-12-27T02:44:15.529Z,22.16
2022-12-27T02:49:45.109Z,22.19
2022-12-27T02:55:18.184Z,22.17
2022-12-27T03:00:39.124Z,22.14
2022-12-27T03:06:11.607Z,22.13
2022-12-27T03:11:31.642Z,22.19
2022-12-27T03:16:41.491Z,22.19
2022-12-27T03:22:05.086Z,22.15
2022-12-27T03:27:10.971Z,22.15
2022-12-27T03:32:30.909Z,22.19
2022-12-27T03:37:53.793Z,22.19
2022-12-27T03:43:10.788Z,22.20
2022-12-27T03:48:12.369Z,22.13
2022-12-27T03:53:23.290Z,22.11
2022-12-27T03:58:24.715Z,22.17
2022-12-27T04:03:26.116Z,22.20
2022-12-27T04:08:46.053Z,22.20
2022-12-27T04:14:05.802Z,22.16
2022-12-27T04:19:25.556Z,22.13
2022-12-27T04:24:45.158Z,22.18
2022-12-27T04:30:04.885Z,22.19
2022-12-27T04:35:06.487Z,22.20
2022-12-27T04:40:26.988Z,22.13
2022-12-27T04:45:46.633Z,22.16
2022-12-27T04:51:06.708Z,22.24
2022-12-27T04:56:08.114Z,22.20
2022-12-27T05:01:27.894Z,22.23
2022-12-27T05:06:29.313Z,22.14
2022-12-27T05:11:49.339Z,22.17
2022-12-27T05:16:50.765Z,22.21
2022-12-27T05:22:10.715Z,22.24
2022-12-27T05:27:12.087Z,22.21
2022-12-27T05:32:13.987Z,22.16
2022-12-27T05:37:15.476Z,22.26
2022-12-27T05:42:16.894Z,22.30
2022-12-27T05:47:18.316Z,22.29
2022-12-27T05:52:19.753Z,22.30
2022-12-27T05:57:21.141Z,22.29
2022-12-27T06:02:22.656Z,22.35
2022-12-27T06:07:24.175Z,22.37
2022-12-27T06:12:25.556Z,22.41
2022-12-27T06:17:27.004Z,22.35
2022-12-27T06:22:28.588Z,22.37
2022-12-27T06:27:30.030Z,22.42
2022-12-27T06:32:31.973Z,22.45
2022-12-27T06:37:33.347Z,22.46
2022-12-27T06:42:34.727Z,22.42
2022-12-27T06:47:36.606Z,22.40
2022-12-27T06:52:38.026Z,22.42
2022-12-27T06:57:39.408Z,22.45
2022-12-27T07:02:40.955Z,22.48
2022-12-27T07:07:42.423Z,22.39
2022-12-27T07:12:43.804Z,22.35
2022-12-27T07:17:45.214Z,22.44
2022-12-27T07:22:46.609Z,22.45
2022-12-27T07:27:47.981Z,22.46
2022-12-27T07:32:49.349Z,22.38
2022-12-27T07:37:50.717Z,22.36
2022-12-27T07:42:52.101Z,22.42
2022-12-27T07:47:53.522Z,22.49
2022-12-27T07:52:54.927Z,22.48
2022-12-27T07:57:57.187Z,22.43
2022-12-27T08:02:58.579Z,22.42
2022-12-27T08:08:01.618Z,22.46
2022-12-27T08:13:03.008Z,22.49
2022-12-27T08:18:04.455Z,22.46
2022-12-27T08:23:05.865Z,22.46
2022-12-27T08:28:09.080Z,22.44
2022-12-27T08:33:10.609Z,22.49
2022-12-27T08:38:12.069Z,22.52
2022-12-27T08:43:14.122Z,22.50
2022-12-27T08:48:16.246Z,22.48
2022-12-27T08:53:17.650Z,22.45
2022-12-27T08:58:20.224Z,22.50
2022-12-27T09:03:21.743Z,22.51
2022-12-27T09:08:23.193Z,22.50
2022-12-27T09:13:24.571Z,22.47
2022-12-27T09:18:25.971Z,22.40
2022-12-27T09:23:27.357Z,22.53
2022-12-27T09:28:28.736Z,22.56
2022-12-27T09:33:30.183Z,22.53
2022-12-27T09:38:31.676Z,22.47
2022-12-27T09:43:40.227Z,22.46
2022-12-27T09:48:41.685Z,22.54
2022-12-27T09:54:13.335Z,22.57
2022-12-27T09:59:34.082Z,22.55
2022-12-27T10:05:09.984Z,22.54
2022-12-27T10:10:29.132Z,22.49
2022-12-27T10:15:46.724Z,22.56
2022-12-27T10:20:51.254Z,22.55
2022-12-27T10:25:58.027Z,22.51
2022-12-27T10:31:02.631Z,22.50
2022-12-27T10:36:09.270Z,22.48
2022-12-27T10:41:35.911Z,22.56
2022-12-27T10:46:37.348Z,22.56
2022-12-27T10:51:39.748Z,22.55
2022-12-27T10:56:41.779Z,22.52
2022-12-27T11:01:47.470Z,22.52
2022-12-27T11:06:52.236Z,22.52
2022-12-27T11:12:17.985Z,22.57
2022-12-27T11:17:19.374Z,22.55
2022-12-27T11:22:20.767Z,22.51
2022-12-27T11:27:24.153Z,22.50
2022-12-27T11:32:25.567Z,22.51
2022-12-27T11:37:26.952Z,22.55
2022-12-27T11:42:39.423Z,22.56
2022-12-27T11:47:51.903Z,22.57
2022-12-27T11:53:11.971Z,22.50
2022-12-27T11:58:43.238Z,22.51
2022-12-27T12:04:08.062Z,22.59
2022-12-27T12:09:20.961Z,22.61
2022-12-27T12:14:43.454Z,22.55
2022-12-27T12:20:00.027Z,22.56
2022-12-27T12:25:07.391Z,22.55
2022-12-27T12:30:39.348Z,22.62
2022-12-27T12:35:48.889Z,22.60
2022-12-27T12:41:09.206Z,22.61
2022-12-27T12:46:23.475Z,22.55
2022-12-27T12:51:55.304Z,22.56
2022-12-27T12:57:15.759Z,22.63
2022-12-27T13:02:54.495Z,22.61
2022-12-27T13:08:12.034Z,22.57
2022-12-27T13:13:35.065Z,22.56
2022-12-27T13:19:11.043Z,22.60
2022-12-27T13:24:29.418Z,22.60
2022-12-27T13:29:57.444Z,22.61
2022-12-27T13:35:27.939Z,22.62
2022-12-27T13:40:51.984Z,22.58
2022-12-27T13:46:15.039Z,22.54
2022-12-27T13:51:44.603Z,22.61
2022-12-27T13:57:16.857Z,22.63
2022-12-27T14:02:37.190Z,22.57
2022-12-27T14:08:09.467Z,22.54
2022-12-27T14:13:11.295Z,22.56
2022-12-27T14:18:28.213Z,22.59
2022-12-27T14:23:51.993Z,22.61
2022-12-27T14:29:22.475Z,22.59
2022-12-27T14:34:58.925Z,22.53
2022-12-27T14:40:32.826Z,22.52
2022-12-27T14:45:58.148Z,22.59
2022-12-27T14:52:00.002Z,22.58
2022-12-27T14:57:40.057Z,22.58
2022-12-27T15:02:53.412Z,22.55
2022-12-27T15:08:20.821Z,22.58
2022-12-27T15:13:32.947Z,22.59
2022-12-27T15:18:49.415Z,22.60
2022-12-27T15:23:55.567Z,22.58
2022-12-27T15:29:19.337Z,22.50
2022-12-27T15:34:42.498Z,22.55
2022-12-27T15:39:43.714Z,22.57
2022-12-27T15:44:57.230Z,22.60
2022-12-27T15:50:13.691Z,22.54
2022-12-27T15:55:42.751Z,22.51
2022-12-27T16:00:44.589Z,22.53
2022-12-27T16:05:47.671Z,22.56
2022-12-27T16:10:49.757Z,22.59
2022-12-27T16:15:53.162Z,22.56
2022-12-27T16:20:55.490Z,22.52
2022-12-27T16:26:04.543Z,22.57
2022-12-27T16:31:07.761Z,22.56
2022-12-27T16:36:11.853Z,22.60
2022-12-27T16:41:25.334Z,22.55
2022-12-27T16:46:59.590Z,22.50
2022-12-27T16:52:07.027Z,22.49
2022-12-27T16:57:23.571Z,22.54
2022-12-27T17:02:30.432Z,22.52
2022-12-27T17:08:02.474Z,22.47
2022-12-27T17:13:18.335Z,22.40
2022-12-27T17:18:32.238Z,22.44
2022-12-27T17:23:44.469Z,22.48
2022-12-27T17:29:01.811Z,22.47
2022-12-27T17:34:09.885Z,22.38
2022-12-27T17:39:26.951Z,22.33
2022-12-27T17:44:40.574Z,22.37
2022-12-27T17:49:41.964Z,22.46
2022-12-27T17:55:01.631Z,22.48
2022-12-27T18:00:03.833Z,22.39
2022-12-27T18:05:07.269Z,22.38
2022-12-27T18:10:22.804Z,22.44
2022-12-27T18:15:28.449Z,22.45
2022-12-27T18:20:40.362Z,22.44
2022-12-27T18:25:44.403Z,22.41
2022-12-27T18:30:55.227Z,22.40
2022-12-27T18:35:56.664Z,22.45
2022-12-27T18:41:17.803Z,22.43
2022-12-27T18:46:29.035Z,22.44
2022-12-27T18:51:31.675Z,22.38
2022-12-27T18:56:33.214Z,22.35
2022-12-27T19:01:42.845Z,22.43
2022-12-27T19:07:03.849Z,22.47
2022-12-27T19:12:18.665Z,22.43
2022-12-27T19:17:25.030Z,22.38
2022-12-27T19:22:46.526Z,22.35
2022-12-27T19:28:10.208Z,22.44
2022-12-27T19:33:20.971Z,22.45
2022-12-27T19:38:23.794Z,22.44
2022-12-27T19:43:25.617Z,22.37
2022-12-27T19:48:26.998Z,22.39
2022-12-27T19:53:31.154Z,22.43
2022-12-27T19:58:32.551Z,22.44
2022-12-27T20:03:34.331Z,22.42
2022-12-27T20:08:45.891Z,22.39
2022-12-27T20:13:47.400Z,22.38
2022-12-27T20:18:48.804Z,22.42
2022-12-27T20:23:50.480Z,22.47
2022-12-27T20:28:52.042Z,22.41
2022-12-27T20:33:54.041Z,22.38
2022-12-27T20:38:55.427Z,22.41
2022-12-27T20:43:57.247Z,22.47
2022-12-27T20:49:00.187Z,22.44
2022-12-27T20:54:02.158Z,22.40
2022-12-27T20:59:03.596Z,22.41
2022-12-27T21:04:04.982Z,22.33
2022-12-27T21:09:08.323Z,22.38
2022-12-27T21:14:11.562Z,22.45
2022-12-27T21:19:12.948Z,22.45
2022-12-27T21:24:14.601Z,22.41
2022-12-27T21:29:16.368Z,22.38
2022-12-27T21:34:17.744Z,22.45
2022-12-27T21:39:19.165Z,22.46
2022-12-27T21:44:24.997Z,22.42
2022-12-27T21:49:26.247Z,22.40
2022-12-27T21:54:27.621Z,22.38
2022-12-27T21:59:29.066Z,22.41
2022-12-27T22:04:30.438Z,22.45
2022-12-27T22:09:31.873Z,22.45
2022-12-27T22:14:36.885Z,22.41
2022-12-27T22:19:38.644Z,22.36
2022-12-27T22:24:40.015Z,22.41
2022-12-27T22:29:41.404Z,22.43
2022-12-27T22:34:42.791Z,22.43
2022-12-27T22:39:44.176Z,22.41
2022-12-27T22:44:45.708Z,22.41
2022-12-27T22:49:47.161Z,22.38
2022-12-27T22:55:06.001Z,22.40
2022-12-27T23:00:12.243Z,22.42
2022-12-27T23:05:13.882Z,22.37
2022-12-27T23:10:15.302Z,22.37
2022-12-27T23:15:16.724Z,22.39
2022-12-27T23:20:18.166Z,22.43
2022-12-27T23:25:19.540Z,22.46
2022-12-27T23:30:22.791Z,22.36
2022-12-27T23:35:24.181Z,22.37
2022-12-27T23:40:25.569Z,22.40
2022-12-27T23:45:26.953Z,22.42
2022-12-27T23:50:28.411Z,22.43
2022-12-27T23:55:29.817Z,22.36
